createdAt,value
2022-12-15T02:44:41.059Z,29.63
2022-12-15T02:45:54.158Z,32.38
2022-12-15T02:47:17.944Z,29.12
2022-12-15T02:48:49.598Z,25.12
2022-12-15T02:49:59.534Z,27.13
2022-12-15T02:51:27.420Z,29.44
2022-12-15T02:52:52.423Z,35.88
2022-12-15T02:54:05.394Z,34.88
2022-12-15T02:55:43.589Z,22.00
2022-12-15T02:57:02.695Z,30.81
2022-12-15T02:58:17.042Z,29.63
2022-12-15T02:59:27.043Z,32.00
2022-12-15T03:00:34.143Z,28.19
2022-12-15T03:01:46.860Z,27.81
2022-12-15T03:02:54.640Z,24.81
2022-12-15T03:04:04.338Z,30.69
2022-12-15T03:05:14.222Z,25.75
2022-12-15T03:06:21.189Z,30.75
2022-12-15T03:07:33.828Z,28.69
2022-12-15T03:08:34.740Z,30.12
2022-12-15T03:09:43.654Z,29.56
2022-12-15T03:10:52.564Z,34.75
2022-12-15T03:12:01.077Z,27.06
2022-12-15T03:13:05.190Z,31.44
2022-12-15T03:14:09.192Z,27.56
2022-12-15T03:15:16.194Z,34.50
2022-12-15T03:16:22.632Z,28.19
2022-12-15T03:17:26.615Z,26.87
2022-12-15T03:18:32.286Z,25.81
2022-12-15T03:19:43.507Z,24.69
2022-12-15T03:20:47.562Z,29.56
2022-12-15T03:21:54.266Z,25.44
2022-12-15T03:22:57.446Z,26.75
2022-12-15T03:24:34.373Z,29.50
2022-12-15T03:25:09.121Z,24.81
2022-12-15T03:26:16.472Z,30.50
2022-12-15T03:27:26.859Z,28.94
2022-12-15T03:28:34.332Z,25.94
2022-12-15T03:29:38.551Z,29.31
2022-12-15T03:30:44.300Z,22.37
2022-12-15T03:31:51.301Z,26.50
2022-12-15T03:32:56.796Z,26.25
2022-12-15T03:34:05.609Z,29.47
2022-12-15T03:35:23.365Z,27.62
2022-12-15T03:36:31.872Z,29.87
2022-12-15T03:37:37.821Z,31.00
2022-12-15T03:38:42.799Z,30.06
2022-12-15T03:39:51.452Z,33.00
2022-12-15T03:40:55.514Z,29.37
2022-12-15T03:41:59.826Z,32.19
2022-12-15T03:43:05.479Z,24.00
2022-12-15T03:44:09.571Z,30.06
2022-12-15T03:45:16.365Z,29.00
2022-12-15T03:46:23.868Z,29.69
2022-12-15T03:47:40.491Z,25.69
2022-12-15T03:48:35.238Z,32.06
2022-12-15T03:49:42.431Z,28.25
2022-12-15T03:50:53.807Z,19.75
2022-12-15T03:51:58.915Z,26.87
2022-12-15T03:53:07.997Z,28.31
2022-12-15T03:54:14.190Z,29.12
2022-12-15T03:55:18.508Z,26.69
2022-12-15T03:56:23.195Z,30.37
2022-12-15T03:57:27.100Z,19.44
2022-12-15T03:58:31.018Z,29.25
2022-12-15T03:59:40.372Z,22.50
2022-12-15T04:00:42.243Z,29.37
2022-12-15T04:01:48.998Z,28.56
2022-12-15T04:02:55.460Z,23.69
2022-12-15T04:04:01.538Z,22.33
2022-12-15T04:05:11.674Z,32.94
2022-12-15T04:06:17.276Z,28.87
2022-12-15T04:07:22.863Z,25.62
2022-12-15T04:08:26.921Z,28.31
2022-12-15T04:09:30.913Z,27.81
2022-12-15T04:10:39.179Z,33.81
2022-12-15T04:12:05.684Z,27.06
2022-12-15T04:13:09.278Z,25.50
2022-12-15T04:14:18.284Z,21.12
2022-12-15T04:15:25.422Z,20.62
2022-12-15T04:16:29.624Z,25.12
2022-12-15T04:17:37.754Z,24.00
2022-12-15T04:18:41.866Z,26.47
2022-12-15T04:19:47.447Z,25.62
2022-12-15T04:20:56.010Z,31.12
2022-12-15T04:21:59.942Z,29.50
2022-12-15T04:23:04.054Z,26.50
2022-12-15T04:24:08.320Z,27.25
2022-12-15T04:25:21.528Z,25.75
2022-12-15T04:26:32.327Z,28.50
2022-12-15T04:28:53.171Z,28.13
2022-12-15T04:29:18.147Z,30.31
2022-12-15T04:29:57.266Z,25.25
2022-12-15T04:31:12.919Z,25.62
2022-12-15T04:32:18.729Z,30.62
2022-12-15T04:33:30.503Z,29.75
2022-12-15T04:34:31.694Z,25.00
2022-12-15T04:35:37.267Z,26.87
2022-12-15T04:36:45.610Z,23.00
2022-12-15T04:37:51.732Z,27.75
2022-12-15T04:38:55.938Z,24.50
2022-12-15T04:40:00.829Z,19.94
2022-12-15T04:41:07.306Z,25.44
2022-12-15T04:42:13.554Z,26.50
2022-12-15T04:43:19.098Z,27.00
2022-12-15T04:44:26.935Z,33.81
2022-12-15T04:45:36.260Z,28.19
2022-12-15T04:46:40.269Z,25.75
2022-12-15T04:47:44.383Z,28.75
2022-12-15T04:48:50.035Z,28.75
2022-12-15T04:49:54.133Z,32.88
2022-12-15T04:50:59.679Z,27.37
2022-12-15T04:52:05.244Z,26.53
2022-12-15T04:53:13.450Z,24.25
2022-12-15T04:54:17.066Z,24.37
2022-12-15T04:55:21.055Z,34.19
2022-12-15T04:56:24.988Z,18.67
2022-12-15T04:57:29.004Z,27.44
2022-12-15T04:58:34.313Z,25.94
2022-12-15T04:59:38.165Z,27.62
2022-12-15T05:00:42.268Z,27.37
2022-12-15T05:01:47.005Z,28.56
2022-12-15T05:02:53.659Z,28.50
2022-12-15T05:03:57.659Z,27.69
2022-12-15T05:05:03.192Z,25.19
2022-12-15T05:06:08.289Z,27.87
2022-12-15T05:07:12.475Z,22.81
2022-12-15T05:08:17.640Z,30.50
2022-12-15T05:09:23.191Z,25.62
2022-12-15T05:10:27.207Z,19.19
2022-12-15T05:11:38.045Z,33.88
2022-12-15T05:12:40.500Z,33.60
2022-12-15T05:13:44.657Z,30.81
2022-12-15T05:14:49.582Z,28.87
2022-12-15T05:15:55.527Z,26.31
2022-12-15T05:17:00.913Z,31.50
2022-12-15T05:18:05.120Z,28.50
2022-12-15T05:19:09.157Z,25.25
2022-12-15T05:20:13.181Z,25.69
2022-12-15T05:21:20.950Z,28.94
2022-12-15T05:22:28.136Z,27.00
2022-12-15T05:23:36.469Z,29.37
2022-12-15T05:25:08.800Z,24.25
2022-12-15T05:26:07.717Z,29.56
2022-12-15T05:26:58.369Z,29.00
2022-12-15T05:28:05.356Z,28.75
2022-12-15T05:29:09.422Z,24.93
2022-12-15T05:30:16.164Z,35.25
2022-12-15T05:31:20.903Z,22.06
2022-12-15T05:32:24.950Z,29.44
2022-12-15T05:33:29.380Z,29.69
2022-12-15T05:34:35.330Z,30.81
2022-12-15T05:35:42.101Z,30.47
2022-12-15T05:36:48.267Z,25.33
2022-12-15T05:37:53.991Z,23.12
2022-12-15T05:39:01.187Z,30.62
2022-12-15T05:40:07.497Z,23.56
2022-12-15T05:41:11.433Z,27.69
2022-12-15T05:42:17.026Z,30.62
2022-12-15T05:43:26.197Z,28.31
2022-12-15T05:44:28.823Z,29.50
2022-12-15T05:45:37.062Z,27.44
2022-12-15T05:46:42.574Z,30.62
2022-12-15T05:47:49.653Z,25.62
2022-12-15T05:49:00.109Z,26.27
2022-12-15T05:50:01.101Z,31.13
2022-12-15T05:51:10.009Z,30.56
2022-12-15T05:52:17.693Z,32.81
2022-12-15T05:53:22.016Z,29.12
2022-12-15T05:54:26.198Z,38.87
2022-12-15T10:30:33.796Z,30.06
2022-12-15T10:31:54.384Z,26.87
2022-12-15T21:57:41.130Z,59.00
2022-12-15T21:58:51.326Z,56.31
2022-12-15T21:59:59.158Z,53.75
2022-12-15T22:01:09.123Z,56.13
2022-12-15T22:03:55.421Z,57.31
2022-12-15T22:05:05.767Z,55.27
2022-12-15T22:06:15.956Z,53.31
2022-12-15T22:07:27.023Z,55.50
2022-12-15T22:08:35.799Z,56.73
2022-12-15T22:09:48.482Z,55.53
2022-12-15T22:11:09.415Z,56.06
2022-12-15T22:12:10.883Z,48.31
2022-12-15T22:14:48.372Z,54.73
2022-12-15T22:15:55.725Z,54.44
2022-12-15T22:17:01.976Z,52.40
2022-12-15T22:18:12.185Z,54.25
2022-12-15T22:19:19.280Z,51.13
2022-12-15T22:20:25.600Z,51.40
2022-12-15T22:21:31.208Z,49.13
2022-12-15T22:22:35.550Z,55.19
2022-12-15T22:23:40.013Z,53.13
2022-12-15T22:24:48.249Z,55.63
2022-12-15T22:25:55.361Z,52.80
2022-12-15T22:27:01.271Z,52.33
2022-12-15T22:28:06.900Z,59.73
2022-12-15T22:29:20.260Z,52.94
2022-12-15T22:30:27.031Z,53.00
2022-12-15T22:31:31.377Z,47.27
2022-12-15T22:32:37.451Z,50.88
2022-12-15T22:33:48.351Z,45.88
2022-12-15T22:34:52.773Z,49.27
2022-12-15T22:35:58.646Z,48.63
2022-12-15T22:37:02.920Z,48.50
2022-12-15T22:38:07.181Z,49.81
2022-12-15T22:39:13.632Z,47.75
2022-12-15T22:40:18.477Z,52.38
2022-12-15T22:41:31.070Z,53.81
2022-12-15T22:42:40.639Z,51.19
2022-12-15T22:43:49.476Z,49.69
2022-12-15T22:44:54.138Z,57.75
2022-12-15T22:46:05.741Z,54.75
2022-12-15T22:47:12.126Z,51.33
2022-12-15T22:48:20.087Z,52.60
2022-12-15T22:49:27.299Z,52.62
2022-12-15T22:50:31.710Z,56.33
2022-12-15T22:53:20.504Z,48.56
2022-12-15T22:54:27.265Z,45.53
2022-12-15T22:55:31.340Z,44.31
2022-12-15T22:56:38.450Z,52.47
2022-12-15T22:57:46.207Z,52.81
2022-12-15T23:22:44.098Z,61.07
2022-12-15T23:27:25.534Z,61.06
2022-12-15T23:28:30.023Z,61.13
2022-12-15T23:29:34.287Z,61.40
2022-12-15T23:30:45.181Z,58.33
2022-12-15T23:31:50.728Z,63.19
2022-12-15T23:32:55.508Z,61.07
2022-12-15T23:34:01.544Z,59.38
2022-12-15T23:35:10.996Z,62.25
2022-12-15T23:36:31.054Z,57.53
2022-12-15T23:37:43.437Z,54.13
2022-12-15T23:38:58.238Z,60.81
2022-12-15T23:40:16.475Z,55.75
